createdAt,value
2022-12-06T00:02:52.773Z,0.46
2022-12-06T00:07:55.817Z,0.41
2022-12-06T00:12:58.664Z,0.50
2022-12-06T00:18:02.733Z,0.50
2022-12-06T00:23:05.527Z,0.53
2022-12-06T00:28:08.384Z,0.36
2022-12-06T00:33:12.501Z,0.50
2022-12-06T00:38:15.250Z,0.59
2022-12-06T00:43:18.031Z,0.54
2022-12-06T00:48:22.399Z,0.56
2022-12-06T00:53:25.698Z,0.56
2022-12-06T00:58:29.014Z,0.46
2022-12-06T01:03:35.248Z,0.26
2022-12-06T01:08:38.884Z,0.58
2022-12-06T01:13:44.065Z,0.22
2022-12-06T01:18:48.485Z,0.42
2022-12-06T01:23:53.034Z,0.49
2022-12-06T01:28:56.406Z,0.55
2022-12-06T01:34:00.507Z,0.59
2022-12-06T01:39:06.914Z,0.53
2022-12-06T01:44:41.076Z,0.48
2022-12-06T01:49:50.678Z,0.32
2022-12-06T01:54:54.428Z,0.24
2022-12-06T01:59:57.521Z,0.24
2022-12-06T02:05:03.679Z,0.22
2022-12-06T02:10:07.876Z,0.32
2022-12-06T02:15:11.802Z,0.39
2022-12-06T02:20:26.427Z,0.35
2022-12-06T02:26:22.719Z,0.20
2022-12-06T02:31:29.875Z,0.17
2022-12-06T02:36:39.742Z,0.22
2022-12-06T02:41:48.935Z,0.04
2022-12-06T02:46:55.563Z,0.11
2022-12-06T02:51:58.719Z,0.05
2022-12-06T02:57:01.476Z,0.12
2022-12-06T03:02:11.644Z,0.10
2022-12-06T03:07:26.759Z,0.14
2022-12-06T03:12:34.395Z,0.04
2022-12-06T03:17:48.101Z,-0.05
2022-12-06T03:22:55.537Z,0.05
2022-12-06T03:28:01.740Z,-0.00
2022-12-06T03:33:06.666Z,0.02
2022-12-06T03:38:15.523Z,-0.01
2022-12-06T03:43:18.906Z,-0.01
2022-12-06T03:48:30.392Z,0.14
2022-12-06T03:53:33.568Z,0.20
2022-12-06T03:58:36.379Z,-0.08
2022-12-06T04:03:40.573Z,0.09
2022-12-06T04:08:43.512Z,0.27
2022-12-06T04:13:46.423Z,0.28
2022-12-06T04:18:50.565Z,0.20
2022-12-06T04:23:53.640Z,0.21
2022-12-06T04:29:13.998Z,0.26
2022-12-06T04:34:36.094Z,0.37
2022-12-06T04:39:38.838Z,0.21
2022-12-06T04:44:41.830Z,0.23
2022-12-06T04:49:46.116Z,0.44
2022-12-06T04:54:49.001Z,0.42
2022-12-06T04:59:51.775Z,0.44
2022-12-06T05:04:55.897Z,0.51
2022-12-06T05:09:58.971Z,0.49
2022-12-06T05:15:01.837Z,0.33
2022-12-06T05:20:07.928Z,0.59
2022-12-06T05:25:11.248Z,0.65
2022-12-06T05:30:14.764Z,0.48
2022-12-06T05:35:19.318Z,0.64
2022-12-06T05:40:22.229Z,0.52
2022-12-06T05:45:25.053Z,0.47
2022-12-06T05:50:29.328Z,0.67
2022-12-06T05:55:34.059Z,0.72
2022-12-06T06:00:36.892Z,0.50
2022-12-06T06:05:46.424Z,0.81
2022-12-06T06:10:49.233Z,0.85
2022-12-06T06:15:52.180Z,0.79
2022-12-06T06:21:00.161Z,0.78
2022-12-06T06:26:07.844Z,0.88
2022-12-06T06:31:10.824Z,1.10
2022-12-06T06:36:15.045Z,0.82
2022-12-06T06:41:17.931Z,1.16
2022-12-06T06:46:20.809Z,1.12
2022-12-06T06:51:25.075Z,1.10
2022-12-06T06:56:27.892Z,1.10
2022-12-06T07:01:30.802Z,1.30
2022-12-06T07:06:34.972Z,1.35
2022-12-06T07:11:37.802Z,1.45
2022-12-06T07:16:40.710Z,1.44
2022-12-06T07:21:44.924Z,1.48
2022-12-06T07:26:47.698Z,1.56
2022-12-06T07:31:50.512Z,1.57
2022-12-06T07:36:54.632Z,1.62
2022-12-06T07:42:11.288Z,1.41
2022-12-06T07:47:24.920Z,1.63
2022-12-06T07:52:31.825Z,1.65
2022-12-06T07:57:40.028Z,1.79
2022-12-06T08:02:46.064Z,1.84
2022-12-06T08:07:50.312Z,1.97
2022-12-06T08:12:53.921Z,2.00
2022-12-06T08:17:56.693Z,2.12
2022-12-06T08:23:00.826Z,2.22
2022-12-06T08:28:03.719Z,2.23
2022-12-06T08:33:06.491Z,2.37
2022-12-06T08:38:10.683Z,2.50
2022-12-06T08:43:13.492Z,2.37
2022-12-06T08:48:16.280Z,2.60
2022-12-06T08:53:20.386Z,2.66
2022-12-06T08:58:23.194Z,2.04
2022-12-06T09:03:26.073Z,2.14
2022-12-06T09:08:30.216Z,2.63
2022-12-06T09:13:33.048Z,2.46
2022-12-06T09:18:35.907Z,2.67
2022-12-06T09:23:40.489Z,2.69
2022-12-06T09:28:49.561Z,2.80
2022-12-06T09:33:53.064Z,2.70
2022-12-06T09:39:03.138Z,2.81
2022-12-06T09:44:25.303Z,2.63
2022-12-06T09:49:31.089Z,2.96
2022-12-06T09:54:52.634Z,3.23
2022-12-06T10:00:10.636Z,3.40
2022-12-06T10:05:28.630Z,3.15
2022-12-06T10:10:44.180Z,3.41
2022-12-06T10:15:56.280Z,3.21
2022-12-06T10:21:12.188Z,3.62
2022-12-06T10:26:19.255Z,3.22
2022-12-06T10:31:24.593Z,3.57
2022-12-06T10:36:44.656Z,3.51
2022-12-06T10:41:57.133Z,3.39
2022-12-06T10:47:06.557Z,3.07
2022-12-06T10:52:33.718Z,3.59
2022-12-06T10:57:45.923Z,3.63
2022-12-06T11:02:57.379Z,3.69
2022-12-06T11:08:07.278Z,3.44
2022-12-06T11:13:21.568Z,3.95
2022-12-06T11:18:29.035Z,3.93
2022-12-06T11:23:40.223Z,4.00
2022-12-06T11:28:55.428Z,3.92
2022-12-06T11:34:00.153Z,3.67
2022-12-06T11:39:04.641Z,3.38
2022-12-06T11:44:15.064Z,3.89
2022-12-06T11:49:22.630Z,3.76
2022-12-06T11:54:29.931Z,3.91
2022-12-06T11:59:34.128Z,3.41
2022-12-06T12:04:40.539Z,3.60
2022-12-06T12:09:50.247Z,3.83
2022-12-06T12:14:58.399Z,3.72
2022-12-06T12:20:05.591Z,3.69
2022-12-06T12:25:24.762Z,3.50
2022-12-06T12:30:36.218Z,3.43
2022-12-06T12:35:41.791Z,3.48
2022-12-06T12:40:47.314Z,3.72
2022-12-06T12:46:17.831Z,3.34
2022-12-06T12:51:24.434Z,3.61
2022-12-06T12:56:27.664Z,3.55
2022-12-06T13:01:39.546Z,3.12
2022-12-06T13:06:49.159Z,3.43
2022-12-06T13:11:57.844Z,3.27
2022-12-06T13:17:08.247Z,3.42
2022-12-06T13:22:17.136Z,3.32
2022-12-06T13:27:24.002Z,3.41
2022-12-06T13:32:34.527Z,3.19
2022-12-06T13:37:43.216Z,3.36
2022-12-06T13:42:47.153Z,3.33
2022-12-06T13:47:52.115Z,3.16
2022-12-06T13:53:01.570Z,3.29
2022-12-06T13:58:37.438Z,3.11
2022-12-06T14:03:42.070Z,3.22
2022-12-06T14:08:46.859Z,2.70
2022-12-06T14:13:59.896Z,2.80
2022-12-06T14:19:15.539Z,2.97
2022-12-06T14:24:30.620Z,3.11
2022-12-06T14:29:33.444Z,2.98
2022-12-06T14:34:37.835Z,3.20
2022-12-06T14:39:40.765Z,3.04
2022-12-06T14:44:49.128Z,3.02
2022-12-06T14:50:13.072Z,3.02
2022-12-06T14:55:19.690Z,2.95
2022-12-06T15:00:27.396Z,2.90
2022-12-06T15:05:34.092Z,2.73
2022-12-06T15:10:36.879Z,3.00
2022-12-06T15:15:41.611Z,2.83
2022-12-06T15:20:45.791Z,2.78
2022-12-06T15:25:48.574Z,2.68
2022-12-06T15:30:51.981Z,2.57
2022-12-06T15:35:58.208Z,2.74
2022-12-06T15:41:01.022Z,2.77
2022-12-06T15:46:05.289Z,2.76
2022-12-06T15:51:20.171Z,2.94
2022-12-06T15:56:25.775Z,2.94
2022-12-06T16:01:32.564Z,2.83
2022-12-06T16:06:36.693Z,2.75
2022-12-06T16:11:39.667Z,2.55
2022-12-06T16:16:43.744Z,2.62
2022-12-06T16:21:58.578Z,2.50
2022-12-06T16:27:01.343Z,2.53
2022-12-06T16:32:04.276Z,2.53
2022-12-06T16:37:08.444Z,2.59
2022-12-06T16:42:11.200Z,2.24
2022-12-06T16:47:14.396Z,2.33
2022-12-06T16:52:18.624Z,2.50
2022-12-06T16:57:21.403Z,2.31
2022-12-06T17:02:27.844Z,2.57
2022-12-06T17:07:31.946Z,2.43
2022-12-06T17:12:34.731Z,2.24
2022-12-06T17:17:37.446Z,2.50
2022-12-06T17:22:42.199Z,2.50
2022-12-06T17:27:44.987Z,2.32
2022-12-06T17:32:48.650Z,2.13
2022-12-06T17:37:53.926Z,2.07
2022-12-06T17:43:02.743Z,1.82
2022-12-06T17:48:06.080Z,1.89
2022-12-06T17:53:10.809Z,2.03
2022-12-06T17:58:13.619Z,2.16
2022-12-06T18:03:16.472Z,2.22
2022-12-06T18:08:20.724Z,2.25
2022-12-06T18:13:24.663Z,2.25
2022-12-06T18:18:27.465Z,2.29
2022-12-06T18:23:31.597Z,2.46
2022-12-06T18:28:34.345Z,2.48
2022-12-06T18:33:38.582Z,2.58
2022-12-06T18:38:43.530Z,2.60
2022-12-06T18:43:46.904Z,2.63
2022-12-06T18:48:51.021Z,2.65
2022-12-06T18:53:57.734Z,2.70
2022-12-06T18:59:01.783Z,2.72
2022-12-06T19:04:06.366Z,2.68
2022-12-06T19:09:13.376Z,2.61
2022-12-06T19:14:17.017Z,2.65
2022-12-06T19:19:21.268Z,2.80
2022-12-06T19:24:28.939Z,2.78
2022-12-06T19:29:31.964Z,2.80
2022-12-06T19:34:34.745Z,2.76
2022-12-06T19:39:38.996Z,2.74
2022-12-06T19:44:41.944Z,2.81
2022-12-06T19:49:44.767Z,2.83
2022-12-06T19:54:48.960Z,2.76
2022-12-06T19:59:54.220Z,2.82
2022-12-06T20:04:56.954Z,2.98
2022-12-06T20:10:01.442Z,2.97
2022-12-06T20:15:04.972Z,2.95
2022-12-06T20:20:09.180Z,3.05
2022-12-06T20:25:13.327Z,2.98
2022-12-06T20:30:16.355Z,3.06
2022-12-06T20:35:19.242Z,3.00
2022-12-06T20:40:28.391Z,2.94
2022-12-06T20:45:34.132Z,2.96
2022-12-06T20:50:39.703Z,2.96
2022-12-06T20:55:43.847Z,3.09
2022-12-06T21:00:48.400Z,3.03
2022-12-06T21:05:58.960Z,3.03
2022-12-06T21:16:29.456Z,2.89
2022-12-06T21:21:34.350Z,2.89
2022-12-06T21:26:39.034Z,2.63
2022-12-06T21:31:41.831Z,2.57
2022-12-06T21:36:45.016Z,2.58
2022-12-06T21:41:49.935Z,2.52
2022-12-06T21:46:53.676Z,2.49
2022-12-06T21:52:03.137Z,2.50
2022-12-06T21:57:10.401Z,2.61
2022-12-06T22:02:13.593Z,2.29
2022-12-06T22:07:16.557Z,2.48
2022-12-06T22:12:20.802Z,2.44
2022-12-06T22:17:23.685Z,2.65
2022-12-06T22:22:26.555Z,2.63
2022-12-06T22:27:30.761Z,2.68
2022-12-06T22:32:34.403Z,2.73
2022-12-06T22:37:37.180Z,2.61
2022-12-06T22:42:41.332Z,2.55
2022-12-06T22:47:44.207Z,2.65
2022-12-06T22:52:46.969Z,2.54
2022-12-06T22:57:51.220Z,2.77
2022-12-06T23:02:54.048Z,2.77
2022-12-06T23:07:57.397Z,2.87
2022-12-06T23:13:01.679Z,2.89
2022-12-06T23:18:04.606Z,2.64
2022-12-06T23:23:07.396Z,2.74
2022-12-06T23:28:11.588Z,2.77
2022-12-06T23:33:17.044Z,2.92
2022-12-06T23:38:23.949Z,2.81
2022-12-06T23:43:28.073Z,2.67
2022-12-06T23:48:31.431Z,2.74
2022-12-06T23:53:35.610Z,2.88
2022-12-06T23:58:39.964Z,2.87
